BOX453 KJFK-LFSB
Flight info
| Callsign | BOX453 |
|---|---|
| Flight time | N/A |
| Altitude | 33000 |
| Route | DCT GREKI DCT JUDDS DCT MARTN DCT TOPPS N683B NEEKO/M084F310 DCT 54N050W 55N040W 56N030W 56N020W DCT PIKIL/N0489F310 DCT SOVED DCT MORAG/N0483F330 DCT NUCHU L607 KONAN DCT KOK UL607 REMBA M624 DEMUL DCT SUTAL DCT GTQ DCT POGOL DCT LASAT A242 ARPUS ARPUS9K |
| Aircraft | B77L/H-SDE1E2E3FGHIJ2J3J4J5M1RWXY/LB1D1 |
Departure
| Time | N/A |
|---|---|
| Airport | John F. Kennedy International Airport (KJFK) |
Arrival
| Time | 2026-04-30 15:05 |
|---|---|
| Airport | EuroAirport Basel–Mulhouse–Freiburg (LFSB) |
| Time | Latitude | Longitude | Altitude | Speed | Heading |
|---|---|---|---|---|---|
| 2026-04-30 14:01 | 51.24088 | 0.96249 | 33205 ft | 455 kts | 101° |
| 2026-04-30 14:01 | 51.23079 | 1.06160 | 33218 ft | 455 kts | 101° |
| 2026-04-30 14:02 | 51.22056 | 1.16139 | 33228 ft | 456 kts | 101° |
| 2026-04-30 14:02 | 51.21022 | 1.26127 | 33229 ft | 457 kts | 101° |
| 2026-04-30 14:03 | 51.19978 | 1.36128 | 33234 ft | 457 kts | 102° |
| 2026-04-30 14:03 | 51.18926 | 1.46119 | 33221 ft | 458 kts | 101° |
| 2026-04-30 14:04 | 51.18041 | 1.54454 | 33233 ft | 458 kts | 102° |
| 2026-04-30 14:04 | 51.16972 | 1.64453 | 33235 ft | 458 kts | 102° |
| 2026-04-30 14:05 | 51.15890 | 1.74486 | 33229 ft | 459 kts | 102° |
| 2026-04-30 14:05 | 51.14802 | 1.84495 | 33234 ft | 459 kts | 102° |
| 2026-04-30 14:06 | 51.13163 | 1.99530 | 33213 ft | 459 kts | 100° |
| 2026-04-30 14:07 | 51.12295 | 2.14723 | 33215 ft | 459 kts | 96° |
| 2026-04-30 14:08 | 51.11497 | 2.29841 | 33231 ft | 459 kts | 97° |
| 2026-04-30 14:08 | 51.10651 | 2.45033 | 33225 ft | 459 kts | 97° |
| 2026-04-30 14:09 | 51.10079 | 2.55147 | 33228 ft | 459 kts | 97° |
| 2026-04-30 14:10 | 51.08685 | 2.70173 | 33231 ft | 457 kts | 107° |
| 2026-04-30 14:10 | 51.06877 | 2.79873 | 33227 ft | 458 kts | 107° |
| 2026-04-30 14:11 | 51.05094 | 2.89514 | 33223 ft | 458 kts | 107° |
| 2026-04-30 14:11 | 51.03310 | 2.99240 | 33243 ft | 459 kts | 107° |
| 2026-04-30 14:12 | 51.01523 | 3.08978 | 33247 ft | 459 kts | 107° |
| 2026-04-30 14:12 | 50.99727 | 3.18708 | 33229 ft | 459 kts | 107° |
| 2026-04-30 14:13 | 50.97922 | 3.28437 | 33243 ft | 459 kts | 107° |
| 2026-04-30 14:13 | 50.96135 | 3.38010 | 33244 ft | 459 kts | 107° |
| 2026-04-30 14:14 | 50.94313 | 3.47734 | 33240 ft | 459 kts | 107° |
| 2026-04-30 14:14 | 50.92486 | 3.57434 | 33245 ft | 459 kts | 107° |
| 2026-04-30 14:15 | 50.90646 | 3.67125 | 33245 ft | 459 kts | 107° |
| 2026-04-30 14:15 | 50.88776 | 3.76800 | 33250 ft | 459 kts | 107° |
| 2026-04-30 14:16 | 50.86897 | 3.86456 | 33247 ft | 459 kts | 107° |
| 2026-04-30 14:16 | 50.85025 | 3.96048 | 33270 ft | 459 kts | 107° |
| 2026-04-30 14:17 | 50.83197 | 4.05376 | 33265 ft | 459 kts | 107° |
| 2026-04-30 14:17 | 50.81279 | 4.15119 | 33279 ft | 459 kts | 107° |
| 2026-04-30 14:18 | 50.79385 | 4.24692 | 33291 ft | 460 kts | 107° |
| 2026-04-30 14:18 | 50.76508 | 4.39144 | 33293 ft | 459 kts | 108° |
| 2026-04-30 14:19 | 50.73614 | 4.53588 | 33300 ft | 459 kts | 108° |
| 2026-04-30 14:20 | 50.71672 | 4.63189 | 33304 ft | 459 kts | 108° |
| 2026-04-30 14:20 | 50.68677 | 4.77543 | 33290 ft | 460 kts | 108° |
| 2026-04-30 14:21 | 50.67350 | 4.83790 | 33292 ft | 460 kts | 108° |
| 2026-04-30 14:22 | 50.64251 | 4.98102 | 33320 ft | 460 kts | 109° |
| 2026-04-30 14:22 | 50.60915 | 5.12176 | 33245 ft | 458 kts | 121° |
| 2026-04-30 14:23 | 50.56033 | 5.18449 | 33283 ft | 467 kts | 155° |
| 2026-04-30 14:23 | 50.49857 | 5.21846 | 33273 ft | 471 kts | 158° |
| 2026-04-30 14:24 | 50.44016 | 5.26368 | 33261 ft | 467 kts | 143° |
| 2026-04-30 14:24 | 50.41442 | 5.29472 | 33287 ft | 466 kts | 137° |
| 2026-04-30 14:25 | 50.32187 | 5.43664 | 33271 ft | 466 kts | 133° |
| 2026-04-30 14:26 | 50.25268 | 5.54324 | 33271 ft | 465 kts | 133° |
| 2026-04-30 14:27 | 50.18313 | 5.64849 | 33270 ft | 464 kts | 134° |
| 2026-04-30 14:27 | 50.13679 | 5.71846 | 33277 ft | 464 kts | 134° |
| 2026-04-30 14:28 | 50.06717 | 5.82323 | 33278 ft | 464 kts | 134° |
| 2026-04-30 14:28 | 50.02064 | 5.89292 | 33282 ft | 465 kts | 134° |
| 2026-04-30 14:29 | 49.92873 | 6.00905 | 33287 ft | 470 kts | 148° |
| 2026-04-30 14:31 | 49.77518 | 6.13634 | 33297 ft | 470 kts | 149° |
| 2026-04-30 14:31 | 49.68874 | 6.20841 | 33290 ft | 470 kts | 149° |
| 2026-04-30 14:32 | 49.60238 | 6.28014 | 33292 ft | 470 kts | 149° |
| 2026-04-30 14:33 | 49.54475 | 6.32785 | 33290 ft | 471 kts | 149° |
| 2026-04-30 14:33 | 49.45770 | 6.39890 | 33284 ft | 474 kts | 152° |
| 2026-04-30 14:34 | 49.39738 | 6.43988 | 33283 ft | 475 kts | 154° |
| 2026-04-30 14:34 | 49.33710 | 6.48023 | 33276 ft | 476 kts | 153° |
| 2026-04-30 14:35 | 49.24628 | 6.54143 | 33265 ft | 476 kts | 153° |
| 2026-04-30 14:36 | 49.18558 | 6.58233 | 33266 ft | 475 kts | 153° |
| 2026-04-30 14:36 | 49.12516 | 6.62293 | 33270 ft | 474 kts | 153° |
| 2026-04-30 14:37 | 49.06464 | 6.66348 | 33270 ft | 476 kts | 153° |
| 2026-04-30 14:37 | 49.00289 | 6.70064 | 33265 ft | 480 kts | 162° |
| 2026-04-30 14:38 | 48.93639 | 6.71550 | 33257 ft | 487 kts | 176° |
| 2026-04-30 14:38 | 48.86862 | 6.71257 | 33265 ft | 490 kts | 179° |
| 2026-04-30 14:39 | 48.80044 | 6.70886 | 33248 ft | 491 kts | 179° |
| 2026-04-30 14:39 | 48.73216 | 6.70587 | 33252 ft | 491 kts | 179° |
| 2026-04-30 14:40 | 48.62967 | 6.70192 | 33231 ft | 491 kts | 178° |
| 2026-04-30 14:40 | 48.56146 | 6.69929 | 33227 ft | 490 kts | 178° |
| 2026-04-30 14:41 | 48.49321 | 6.69664 | 33226 ft | 489 kts | 178° |
| 2026-04-30 14:41 | 48.42511 | 6.69401 | 33219 ft | 489 kts | 178° |
| 2026-04-30 14:42 | 48.35697 | 6.69141 | 32837 ft | 494 kts | 178° |
| 2026-04-30 14:42 | 48.32261 | 6.69016 | 31991 ft | 501 kts | 179° |
| 2026-04-30 14:42 | 48.28773 | 6.68885 | 31140 ft | 500 kts | 179° |
| 2026-04-30 14:43 | 48.25304 | 6.68753 | 30427 ft | 496 kts | 179° |
| 2026-04-30 14:43 | 48.21875 | 6.68622 | 29783 ft | 490 kts | 179° |
| 2026-04-30 14:43 | 48.18481 | 6.68494 | 29136 ft | 485 kts | 179° |
| 2026-04-30 14:43 | 48.15118 | 6.68369 | 28550 ft | 479 kts | 179° |
| 2026-04-30 14:44 | 48.11810 | 6.68250 | 27983 ft | 473 kts | 179° |
| 2026-04-30 14:44 | 48.08535 | 6.68133 | 27400 ft | 469 kts | 179° |
| 2026-04-30 14:44 | 48.05290 | 6.68019 | 26850 ft | 464 kts | 179° |
| 2026-04-30 14:44 | 48.02074 | 6.67905 | 26286 ft | 460 kts | 179° |
| 2026-04-30 14:45 | 47.98893 | 6.67789 | 25751 ft | 456 kts | 179° |
| 2026-04-30 14:45 | 47.95728 | 6.67670 | 25207 ft | 452 kts | 179° |
| 2026-04-30 14:45 | 47.92592 | 6.67550 | 24672 ft | 449 kts | 179° |
| 2026-04-30 14:45 | 47.89483 | 6.67431 | 24150 ft | 446 kts | 179° |
| 2026-04-30 14:46 | 47.86378 | 6.67315 | 23578 ft | 444 kts | 179° |
| 2026-04-30 14:46 | 47.83339 | 6.67202 | 22988 ft | 441 kts | 179° |
| 2026-04-30 14:46 | 47.80246 | 6.67085 | 22450 ft | 438 kts | 178° |
| 2026-04-30 14:46 | 47.78233 | 6.67011 | 22080 ft | 435 kts | 179° |
| 2026-04-30 14:47 | 47.74286 | 6.67205 | 21360 ft | 421 kts | 164° |
| 2026-04-30 14:47 | 47.71619 | 6.68786 | 20910 ft | 409 kts | 144° |
| 2026-04-30 14:47 | 47.69446 | 6.71478 | 20424 ft | 399 kts | 128° |
| 2026-04-30 14:47 | 47.67885 | 6.74779 | 19995 ft | 391 kts | 116° |
| 2026-04-30 14:48 | 47.66808 | 6.78400 | 19847 ft | 377 kts | 104° |
| 2026-04-30 14:48 | 47.66408 | 6.82144 | 19674 ft | 361 kts | 92° |
| 2026-04-30 14:48 | 47.66270 | 6.85811 | 19531 ft | 351 kts | 92° |
| 2026-04-30 14:48 | 47.66127 | 6.89385 | 19383 ft | 342 kts | 92° |
| 2026-04-30 14:49 | 47.65976 | 6.92858 | 19240 ft | 333 kts | 92° |
| 2026-04-30 14:49 | 47.65817 | 6.96255 | 19090 ft | 325 kts | 92° |
| 2026-04-30 14:49 | 47.65659 | 6.99503 | 18978 ft | 316 kts | 92° |
| 2026-04-30 14:49 | 47.65497 | 7.02750 | 18844 ft | 307 kts | 93° |
| 2026-04-30 14:50 | 47.65180 | 7.08892 | 18489 ft | 294 kts | 92° |
| 2026-04-30 14:50 | 47.65024 | 7.11865 | 18265 ft | 290 kts | 93° |
| 2026-04-30 14:51 | 47.64747 | 7.17813 | 17412 ft | 287 kts | 92° |
| 2026-04-30 14:51 | 47.64618 | 7.20744 | 17042 ft | 283 kts | 92° |
| 2026-04-30 14:51 | 47.64407 | 7.25526 | 16446 ft | 276 kts | 92° |
| 2026-04-30 14:52 | 47.64279 | 7.28341 | 16105 ft | 272 kts | 92° |
| 2026-04-30 14:52 | 47.63952 | 7.33820 | 15407 ft | 261 kts | 106° |
| 2026-04-30 14:52 | 47.63061 | 7.36128 | 15112 ft | 262 kts | 133° |
| 2026-04-30 14:53 | 47.59838 | 7.38970 | 14514 ft | 279 kts | 153° |
| 2026-04-30 14:53 | 47.58062 | 7.40178 | 14150 ft | 281 kts | 153° |
| 2026-04-30 14:54 | 47.54544 | 7.42577 | 13407 ft | 274 kts | 153° |
| 2026-04-30 14:54 | 47.51139 | 7.44909 | 12736 ft | 264 kts | 153° |
| 2026-04-30 14:55 | 47.47861 | 7.47167 | 12116 ft | 259 kts | 153° |
| 2026-04-30 14:55 | 47.46237 | 7.48289 | 11801 ft | 257 kts | 153° |
| 2026-04-30 14:55 | 47.43004 | 7.50521 | 11181 ft | 255 kts | 154° |
| 2026-04-30 14:56 | 47.39758 | 7.52762 | 10490 ft | 259 kts | 153° |
| 2026-04-30 14:56 | 47.36489 | 7.55012 | 9808 ft | 257 kts | 154° |
| 2026-04-30 14:57 | 47.34878 | 7.56112 | 9465 ft | 251 kts | 153° |
| 2026-04-30 14:57 | 47.31814 | 7.58218 | 8919 ft | 236 kts | 153° |
| 2026-04-30 14:58 | 47.30101 | 7.61729 | 8344 ft | 209 kts | 93° |
| 2026-04-30 14:58 | 47.30221 | 7.63829 | 8088 ft | 205 kts | 72° |
| 2026-04-30 14:58 | 47.31385 | 7.67691 | 7619 ft | 210 kts | 64° |
| 2026-04-30 14:59 | 47.33607 | 7.70069 | 7094 ft | 209 kts | 1° |
| 2026-04-30 15:00 | 47.37681 | 7.67705 | 6303 ft | 212 kts | 336° |
| 2026-04-30 15:00 | 47.40230 | 7.65931 | 6207 ft | 208 kts | 339° |
| 2026-04-30 15:01 | 47.42979 | 7.64035 | 5182 ft | 220 kts | 340° |
| 2026-04-30 15:01 | 47.44328 | 7.63097 | 4914 ft | 208 kts | 340° |
| 2026-04-30 15:01 | 47.46863 | 7.61330 | 4027 ft | 194 kts | 342° |
| 2026-04-30 15:02 | 47.48054 | 7.60507 | 3874 ft | 190 kts | 342° |
| 2026-04-30 15:02 | 47.49258 | 7.59677 | 3601 ft | 189 kts | 341° |
| 2026-04-30 15:03 | 47.52625 | 7.57341 | 2932 ft | 170 kts | 338° |
| 2026-04-30 15:03 | 47.54688 | 7.55882 | 2275 ft | 159 kts | 338° |
| 2026-04-30 15:04 | 47.56654 | 7.54544 | 1632 ft | 152 kts | 338° |
| 2026-04-30 15:04 | 47.59408 | 7.52625 | 965 ft | 138 kts | 337° |
| 2026-04-30 15:05 | 47.61202 | 7.51384 | 880 ft | 32 kts | 335° |
| 2026-04-30 15:06 | 47.61474 | 7.51194 | 881 ft | 21 kts | 335° |
| 2026-04-30 15:06 | 47.61696 | 7.51040 | 885 ft | 11 kts | 335° |
| 2026-04-30 15:07 | 47.61794 | 7.51133 | 889 ft | 10 kts | 70° |
| 2026-04-30 15:07 | 47.61741 | 7.51301 | 890 ft | 10 kts | 152° |
| 2026-04-30 15:08 | 47.61617 | 7.51392 | 889 ft | 10 kts | 155° |
| 2026-04-30 15:08 | 47.61429 | 7.51520 | 889 ft | 10 kts | 154° |
| 2026-04-30 15:09 | 47.61304 | 7.51608 | 889 ft | 10 kts | 155° |
| 2026-04-30 15:09 | 47.61178 | 7.51695 | 889 ft | 10 kts | 154° |
| 2026-04-30 15:10 | 47.61053 | 7.51782 | 890 ft | 10 kts | 155° |
| 2026-04-30 15:11 | 47.60747 | 7.51994 | 890 ft | 15 kts | 155° |
| 2026-04-30 15:11 | 47.60555 | 7.52128 | 890 ft | 15 kts | 154° |
| 2026-04-30 15:12 | 47.60267 | 7.52329 | 891 ft | 15 kts | 155° |
| 2026-04-30 15:13 | 47.60076 | 7.52462 | 891 ft | 15 kts | 155° |
| 2026-04-30 15:14 | 47.59688 | 7.52730 | 894 ft | 16 kts | 155° |
| 2026-04-30 15:14 | 47.59383 | 7.52943 | 898 ft | 16 kts | 154° |
| 2026-04-30 15:16 | 47.58813 | 7.53342 | 891 ft | 19 kts | 154° |
| 2026-04-30 15:17 | 47.58751 | 7.53648 | 898 ft | 5 kts | 64° |
| 2026-04-30 15:18 | 47.58760 | 7.53678 | 898 ft | 0 kts | 64° |